RYR97CB LPPR-EDSB
Flight info
| Callsign | RYR97CB |
|---|---|
| Flight time | 2h 21m |
| Altitude | 36000 |
| Route | BELDU DCT CANAR DCT ADORO DCT FITSE DCT NUBLO DCT RONSI DCT DELOG DCT YURZI UL14 TEPRA UN867 MOKOR UN741 NTS DCT PIWIZ DCT RESMI/N0440F370 UN491 POGZI DCT GELTA DCT LUVAL/N0441F380 DCT EPL |
| Aircraft | B738/M-SDE3FGILRWY/SB1 |
Departure
| Time | 2026-05-05 07:37 |
|---|---|
| Airport | Francisco de Sá Carneiro Airport (LPPR) |
Arrival
| Time | 2026-05-05 09:58 |
|---|---|
| Airport | Karlsruhe Baden-Baden Airport (EDSB) |
| Time | Latitude | Longitude | Altitude | Speed | Heading |
|---|---|---|---|---|---|
| 2026-05-05 07:24 | 41.23831 | -8.67384 | 244 ft | 0 kts | 79° |
| 2026-05-05 07:27 | 41.23831 | -8.67387 | 243 ft | 2 kts | 79° |
| 2026-05-05 07:27 | 41.23824 | -8.67420 | 242 ft | 4 kts | 69° |
| 2026-05-05 07:28 | 41.23812 | -8.67451 | 239 ft | 4 kts | 46° |
| 2026-05-05 07:28 | 41.23792 | -8.67467 | 238 ft | 3 kts | 353° |
| 2026-05-05 07:28 | 41.23789 | -8.67466 | 238 ft | 2 kts | 348° |
| 2026-05-05 07:30 | 41.23802 | -8.67470 | 238 ft | 3 kts | 348° |
| 2026-05-05 07:30 | 41.23836 | -8.67479 | 238 ft | 7 kts | 348° |
| 2026-05-05 07:31 | 41.23895 | -8.67495 | 237 ft | 11 kts | 348° |
| 2026-05-05 07:31 | 41.23977 | -8.67516 | 237 ft | 12 kts | 348° |
| 2026-05-05 07:31 | 41.24059 | -8.67538 | 237 ft | 12 kts | 348° |
| 2026-05-05 07:31 | 41.24139 | -8.67560 | 237 ft | 12 kts | 348° |
| 2026-05-05 07:32 | 41.24217 | -8.67583 | 236 ft | 11 kts | 339° |
| 2026-05-05 07:32 | 41.24276 | -8.67660 | 233 ft | 14 kts | 305° |
| 2026-05-05 07:32 | 41.24364 | -8.67723 | 226 ft | 16 kts | 349° |
| 2026-05-05 07:32 | 41.24485 | -8.67755 | 220 ft | 19 kts | 349° |
| 2026-05-05 07:33 | 41.24624 | -8.67791 | 212 ft | 22 kts | 349° |
| 2026-05-05 07:33 | 41.24766 | -8.67833 | 204 ft | 19 kts | 340° |
| 2026-05-05 07:33 | 41.24871 | -8.67902 | 203 ft | 17 kts | 335° |
| 2026-05-05 07:33 | 41.24994 | -8.67944 | 196 ft | 19 kts | 349° |
| 2026-05-05 07:34 | 41.25122 | -8.67977 | 188 ft | 18 kts | 349° |
| 2026-05-05 07:34 | 41.25237 | -8.68007 | 182 ft | 17 kts | 349° |
| 2026-05-05 07:34 | 41.25362 | -8.68039 | 178 ft | 19 kts | 349° |
| 2026-05-05 07:34 | 41.25492 | -8.68073 | 174 ft | 19 kts | 348° |
| 2026-05-05 07:35 | 41.25615 | -8.68106 | 170 ft | 16 kts | 349° |
| 2026-05-05 07:35 | 41.25677 | -8.68172 | 169 ft | 11 kts | 280° |
| 2026-05-05 07:35 | 41.25667 | -8.68269 | 169 ft | 10 kts | 259° |
| 2026-05-05 07:35 | 41.25645 | -8.68317 | 170 ft | 6 kts | 208° |
| 2026-05-05 07:36 | 41.25606 | -8.68335 | 171 ft | 6 kts | 187° |
| 2026-05-05 07:36 | 41.25563 | -8.68326 | 172 ft | 9 kts | 169° |
| 2026-05-05 07:36 | 41.25290 | -8.68253 | 179 ft | 74 kts | 168° |
| 2026-05-05 07:36 | 41.24578 | -8.68066 | 208 ft | 132 kts | 168° |
| 2026-05-05 07:37 | 41.23513 | -8.67784 | 332 ft | 170 kts | 168° |
| 2026-05-05 07:37 | 41.22356 | -8.67484 | 1083 ft | 170 kts | 168° |
| 2026-05-05 07:37 | 41.21163 | -8.67174 | 1694 ft | 185 kts | 169° |
| 2026-05-05 07:37 | 41.19803 | -8.66813 | 1949 ft | 212 kts | 169° |
| 2026-05-05 07:38 | 41.18289 | -8.66401 | 2169 ft | 231 kts | 169° |
| 2026-05-05 07:38 | 41.16679 | -8.65955 | 2567 ft | 240 kts | 169° |
| 2026-05-05 07:38 | 41.15020 | -8.65490 | 3020 ft | 249 kts | 169° |
| 2026-05-05 07:38 | 41.13253 | -8.64995 | 3335 ft | 266 kts | 169° |
| 2026-05-05 07:39 | 41.11418 | -8.64422 | 3977 ft | 274 kts | 161° |
| 2026-05-05 07:39 | 41.09825 | -8.63113 | 4768 ft | 278 kts | 135° |
| 2026-05-05 07:39 | 41.08772 | -8.60963 | 5491 ft | 282 kts | 107° |
| 2026-05-05 07:39 | 41.08564 | -8.58387 | 6199 ft | 283 kts | 80° |
| 2026-05-05 07:40 | 41.08916 | -8.55812 | 6927 ft | 285 kts | 75° |
| 2026-05-05 07:40 | 41.09324 | -8.53220 | 7653 ft | 288 kts | 75° |
| 2026-05-05 07:40 | 41.09753 | -8.50617 | 8389 ft | 289 kts | 70° |
| 2026-05-05 07:40 | 41.10496 | -8.48146 | 9134 ft | 288 kts | 60° |
| 2026-05-05 07:41 | 41.11390 | -8.45758 | 9862 ft | 290 kts | 59° |
| 2026-05-05 07:41 | 41.12314 | -8.43352 | 10400 ft | 300 kts | 59° |
| 2026-05-05 07:41 | 41.13276 | -8.40817 | 10547 ft | 323 kts | 59° |
| 2026-05-05 07:41 | 41.14293 | -8.38079 | 10890 ft | 337 kts | 60° |
| 2026-05-05 07:42 | 41.15326 | -8.35246 | 11499 ft | 343 kts | 60° |
| 2026-05-05 07:42 | 41.16361 | -8.32377 | 12220 ft | 346 kts | 61° |
| 2026-05-05 07:42 | 41.17404 | -8.29477 | 12908 ft | 350 kts | 61° |
| 2026-05-05 07:42 | 41.18458 | -8.26545 | 13616 ft | 354 kts | 61° |
| 2026-05-05 07:43 | 41.19524 | -8.23580 | 14307 ft | 357 kts | 61° |
| 2026-05-05 07:43 | 41.20600 | -8.20587 | 14956 ft | 361 kts | 61° |
| 2026-05-05 07:43 | 41.21688 | -8.17562 | 15618 ft | 365 kts | 61° |
| 2026-05-05 07:43 | 41.22786 | -8.14504 | 16255 ft | 369 kts | 61° |
| 2026-05-05 07:44 | 41.23896 | -8.11411 | 16920 ft | 373 kts | 61° |
| 2026-05-05 07:44 | 41.25014 | -8.08290 | 17589 ft | 377 kts | 61° |
| 2026-05-05 07:44 | 41.26145 | -8.05129 | 18238 ft | 381 kts | 61° |
| 2026-05-05 07:44 | 41.27287 | -8.01933 | 18812 ft | 384 kts | 61° |
| 2026-05-05 07:45 | 41.28432 | -7.98723 | 19354 ft | 388 kts | 61° |
| 2026-05-05 07:45 | 41.29596 | -7.95457 | 19929 ft | 392 kts | 61° |
| 2026-05-05 07:45 | 41.30768 | -7.92167 | 20497 ft | 395 kts | 61° |
| 2026-05-05 07:45 | 41.31946 | -7.88851 | 21038 ft | 400 kts | 61° |
| 2026-05-05 07:46 | 41.33144 | -7.85479 | 21579 ft | 404 kts | 61° |
| 2026-05-05 07:46 | 41.34351 | -7.82081 | 22105 ft | 408 kts | 61° |
| 2026-05-05 07:46 | 41.35558 | -7.78644 | 22614 ft | 412 kts | 64° |
| 2026-05-05 07:46 | 41.36310 | -7.74927 | 23069 ft | 423 kts | 81° |
| 2026-05-05 07:47 | 41.36617 | -7.71021 | 23596 ft | 426 kts | 82° |
| 2026-05-05 07:47 | 41.36905 | -7.67083 | 23996 ft | 430 kts | 82° |
| 2026-05-05 07:47 | 41.37214 | -7.63110 | 24394 ft | 433 kts | 82° |
| 2026-05-05 07:47 | 41.37545 | -7.59107 | 24795 ft | 436 kts | 81° |
| 2026-05-05 07:48 | 41.37894 | -7.55081 | 25185 ft | 440 kts | 81° |
| 2026-05-05 07:48 | 41.38246 | -7.51069 | 25546 ft | 444 kts | 81° |
| 2026-05-05 07:48 | 41.38603 | -7.46976 | 25927 ft | 447 kts | 81° |
| 2026-05-05 07:48 | 41.38960 | -7.42857 | 26301 ft | 450 kts | 81° |
| 2026-05-05 07:49 | 41.39319 | -7.38706 | 26668 ft | 453 kts | 82° |
| 2026-05-05 07:49 | 41.39678 | -7.34519 | 27029 ft | 456 kts | 82° |
| 2026-05-05 07:49 | 41.40037 | -7.30312 | 27388 ft | 459 kts | 82° |
| 2026-05-05 07:49 | 41.40398 | -7.26070 | 27723 ft | 462 kts | 82° |
| 2026-05-05 07:50 | 41.40760 | -7.21804 | 28071 ft | 466 kts | 82° |
| 2026-05-05 07:50 | 41.41123 | -7.17498 | 28375 ft | 470 kts | 82° |
| 2026-05-05 07:50 | 41.41487 | -7.13157 | 28704 ft | 473 kts | 82° |
| 2026-05-05 07:50 | 41.41852 | -7.08791 | 29031 ft | 476 kts | 82° |
| 2026-05-05 07:51 | 41.42217 | -7.04402 | 29352 ft | 479 kts | 82° |
| 2026-05-05 07:51 | 41.42584 | -6.99976 | 29661 ft | 482 kts | 82° |
| 2026-05-05 07:51 | 41.42951 | -6.95524 | 29959 ft | 484 kts | 82° |
| 2026-05-05 07:51 | 41.43318 | -6.91049 | 30229 ft | 487 kts | 82° |
| 2026-05-05 07:52 | 41.43684 | -6.86554 | 30467 ft | 490 kts | 82° |
| 2026-05-05 07:52 | 41.44052 | -6.82035 | 30713 ft | 492 kts | 83° |
| 2026-05-05 07:52 | 41.44420 | -6.77484 | 30899 ft | 495 kts | 83° |
| 2026-05-05 07:52 | 41.44787 | -6.72910 | 31149 ft | 497 kts | 83° |
| 2026-05-05 07:53 | 41.45153 | -6.68334 | 31519 ft | 495 kts | 83° |
| 2026-05-05 07:53 | 41.45515 | -6.63785 | 31941 ft | 493 kts | 83° |
| 2026-05-05 07:53 | 41.45873 | -6.59253 | 32281 ft | 492 kts | 83° |
| 2026-05-05 07:53 | 41.46231 | -6.54709 | 32566 ft | 493 kts | 83° |
| 2026-05-05 07:54 | 41.46588 | -6.50168 | 32847 ft | 493 kts | 83° |
| 2026-05-05 07:54 | 41.46943 | -6.45623 | 33190 ft | 492 kts | 83° |
| 2026-05-05 07:54 | 41.47295 | -6.41089 | 33511 ft | 492 kts | 83° |
| 2026-05-05 07:54 | 41.47641 | -6.36610 | 33781 ft | 492 kts | 83° |
| 2026-05-05 07:55 | 41.47995 | -6.32013 | 34068 ft | 492 kts | 83° |
| 2026-05-05 07:55 | 41.48539 | -6.27574 | 34309 ft | 491 kts | 75° |
| 2026-05-05 07:55 | 41.49595 | -6.23202 | 34551 ft | 488 kts | 66° |
| 2026-05-05 07:55 | 41.50886 | -6.19017 | 34788 ft | 488 kts | 65° |
| 2026-05-05 07:56 | 41.52204 | -6.14844 | 34994 ft | 488 kts | 65° |
| 2026-05-05 07:56 | 41.53518 | -6.10670 | 35224 ft | 488 kts | 65° |
| 2026-05-05 07:56 | 41.54817 | -6.06481 | 35449 ft | 488 kts | 66° |
| 2026-05-05 07:56 | 41.56087 | -6.02327 | 35545 ft | 491 kts | 66° |
| 2026-05-05 07:57 | 41.57386 | -5.98036 | 35709 ft | 493 kts | 66° |
| 2026-05-05 07:57 | 41.58645 | -5.93849 | 35974 ft | 491 kts | 66° |
| 2026-05-05 07:57 | 41.59928 | -5.89567 | 36263 ft | 489 kts | 66° |
| 2026-05-05 07:57 | 41.61172 | -5.85412 | 36530 ft | 488 kts | 66° |
| 2026-05-05 07:58 | 41.62447 | -5.81151 | 36744 ft | 487 kts | 66° |
| 2026-05-05 07:58 | 41.63687 | -5.77001 | 36935 ft | 485 kts | 66° |
| 2026-05-05 07:58 | 41.66190 | -5.68613 | 37031 ft | 484 kts | 67° |
| 2026-05-05 07:59 | 41.68702 | -5.60226 | 37037 ft | 488 kts | 64° |
| 2026-05-05 07:59 | 41.70416 | -5.56403 | 37025 ft | 484 kts | 47° |
| 2026-05-05 07:59 | 41.72794 | -5.53264 | 37043 ft | 479 kts | 34° |
| 2026-05-05 08:00 | 41.75651 | -5.50921 | 37031 ft | 473 kts | 19° |
| 2026-05-05 08:00 | 41.78633 | -5.49232 | 37050 ft | 472 kts | 18° |
| 2026-05-05 08:00 | 41.84781 | -5.45898 | 37036 ft | 474 kts | 18° |
| 2026-05-05 08:01 | 41.90894 | -5.42522 | 37031 ft | 475 kts | 19° |
| 2026-05-05 08:01 | 41.96945 | -5.39098 | 37019 ft | 474 kts | 19° |
| 2026-05-05 08:02 | 42.03003 | -5.35636 | 37014 ft | 472 kts | 19° |
| 2026-05-05 08:02 | 42.09028 | -5.32185 | 37027 ft | 470 kts | 19° |
| 2026-05-05 08:03 | 42.15027 | -5.28747 | 37016 ft | 467 kts | 19° |
| 2026-05-05 08:03 | 42.20994 | -5.25321 | 37015 ft | 465 kts | 19° |
| 2026-05-05 08:04 | 42.26936 | -5.21903 | 37007 ft | 463 kts | 19° |
| 2026-05-05 08:04 | 42.32864 | -5.18486 | 37019 ft | 463 kts | 20° |
| 2026-05-05 08:05 | 42.38783 | -5.15068 | 37008 ft | 463 kts | 20° |
| 2026-05-05 08:05 | 42.43740 | -5.12199 | 37011 ft | 463 kts | 20° |
| 2026-05-05 08:06 | 42.49666 | -5.08762 | 37013 ft | 464 kts | 20° |
| 2026-05-05 08:06 | 42.55606 | -5.05311 | 37018 ft | 465 kts | 20° |
| 2026-05-05 08:07 | 42.61559 | -5.01843 | 37013 ft | 466 kts | 20° |
| 2026-05-05 08:07 | 42.67526 | -4.98362 | 37003 ft | 467 kts | 20° |
| 2026-05-05 08:08 | 42.73503 | -4.94867 | 37002 ft | 468 kts | 20° |
| 2026-05-05 08:08 | 42.79493 | -4.91355 | 37004 ft | 469 kts | 20° |
| 2026-05-05 08:09 | 42.85488 | -4.87831 | 36998 ft | 469 kts | 20° |
| 2026-05-05 08:09 | 42.91488 | -4.84298 | 37006 ft | 470 kts | 20° |
| 2026-05-05 08:10 | 42.97499 | -4.80751 | 37003 ft | 471 kts | 20° |
| 2026-05-05 08:10 | 43.03515 | -4.77193 | 36994 ft | 471 kts | 20° |
| 2026-05-05 08:11 | 43.09527 | -4.73629 | 36993 ft | 470 kts | 20° |
| 2026-05-05 08:11 | 43.15526 | -4.70066 | 37009 ft | 470 kts | 21° |
| 2026-05-05 08:12 | 43.21475 | -4.66525 | 37003 ft | 469 kts | 20° |
| 2026-05-05 08:12 | 43.27439 | -4.62967 | 36998 ft | 466 kts | 21° |
| 2026-05-05 08:13 | 43.33385 | -4.59412 | 36989 ft | 465 kts | 21° |
| 2026-05-05 08:13 | 43.39313 | -4.55861 | 36991 ft | 465 kts | 21° |
| 2026-05-05 08:14 | 43.45238 | -4.52304 | 36993 ft | 464 kts | 21° |
| 2026-05-05 08:14 | 43.51153 | -4.48746 | 37001 ft | 464 kts | 21° |
| 2026-05-05 08:15 | 43.57075 | -4.45180 | 37012 ft | 465 kts | 21° |
| 2026-05-05 08:15 | 43.63013 | -4.41596 | 36998 ft | 466 kts | 21° |
| 2026-05-05 08:16 | 43.68954 | -4.38002 | 37000 ft | 467 kts | 21° |
| 2026-05-05 08:16 | 43.74908 | -4.34391 | 37003 ft | 467 kts | 21° |
| 2026-05-05 08:17 | 43.80869 | -4.30768 | 36999 ft | 468 kts | 21° |
| 2026-05-05 08:17 | 43.86833 | -4.27135 | 36988 ft | 469 kts | 21° |
| 2026-05-05 08:18 | 43.92801 | -4.23492 | 36991 ft | 469 kts | 21° |
| 2026-05-05 08:18 | 43.98771 | -4.19839 | 36995 ft | 469 kts | 22° |
| 2026-05-05 08:19 | 44.04734 | -4.16183 | 36987 ft | 469 kts | 22° |
| 2026-05-05 08:19 | 44.10699 | -4.12518 | 36988 ft | 468 kts | 22° |
| 2026-05-05 08:20 | 44.16649 | -4.08853 | 37000 ft | 468 kts | 22° |
| 2026-05-05 08:20 | 44.22597 | -4.05181 | 36979 ft | 467 kts | 22° |
| 2026-05-05 08:21 | 44.28527 | -4.01513 | 36978 ft | 466 kts | 22° |
| 2026-05-05 08:21 | 44.34404 | -3.97734 | 36976 ft | 465 kts | 26° |
| 2026-05-05 08:22 | 44.40040 | -3.93335 | 36980 ft | 464 kts | 29° |
| 2026-05-05 08:22 | 44.45617 | -3.88814 | 36976 ft | 462 kts | 29° |
| 2026-05-05 08:23 | 44.51188 | -3.84330 | 36975 ft | 461 kts | 28° |
| 2026-05-05 08:23 | 44.56758 | -3.79882 | 36974 ft | 461 kts | 28° |
| 2026-05-05 08:24 | 44.62329 | -3.75440 | 36977 ft | 460 kts | 29° |
| 2026-05-05 08:24 | 44.67894 | -3.70994 | 36973 ft | 460 kts | 29° |
| 2026-05-05 08:25 | 44.73464 | -3.66533 | 36971 ft | 461 kts | 29° |
| 2026-05-05 08:25 | 44.79039 | -3.62056 | 36968 ft | 462 kts | 29° |
| 2026-05-05 08:26 | 44.84619 | -3.57566 | 36971 ft | 463 kts | 29° |
| 2026-05-05 08:26 | 44.90175 | -3.53084 | 36971 ft | 463 kts | 29° |
| 2026-05-05 08:27 | 44.95775 | -3.48557 | 36970 ft | 464 kts | 29° |
| 2026-05-05 08:27 | 45.01382 | -3.44013 | 36957 ft | 465 kts | 29° |
| 2026-05-05 08:28 | 45.06998 | -3.39453 | 36965 ft | 465 kts | 29° |
| 2026-05-05 08:28 | 45.12620 | -3.34876 | 36968 ft | 466 kts | 29° |
| 2026-05-05 08:29 | 45.18248 | -3.30285 | 36974 ft | 466 kts | 29° |
| 2026-05-05 08:30 | 45.26686 | -3.23380 | 36958 ft | 466 kts | 30° |
| 2026-05-05 08:30 | 45.32294 | -3.18779 | 36960 ft | 465 kts | 30° |
| 2026-05-05 08:31 | 45.37897 | -3.14171 | 36968 ft | 464 kts | 30° |
| 2026-05-05 08:31 | 45.43477 | -3.09570 | 36944 ft | 463 kts | 30° |
| 2026-05-05 08:32 | 45.49015 | -3.04994 | 36951 ft | 462 kts | 30° |
| 2026-05-05 08:32 | 45.54576 | -3.00389 | 36958 ft | 461 kts | 30° |
| 2026-05-05 08:33 | 45.60120 | -2.95787 | 36950 ft | 461 kts | 30° |
| 2026-05-05 08:33 | 45.65660 | -2.91178 | 36950 ft | 461 kts | 30° |
| 2026-05-05 08:34 | 45.71196 | -2.86561 | 36948 ft | 461 kts | 30° |
| 2026-05-05 08:34 | 45.76729 | -2.81935 | 36944 ft | 461 kts | 30° |
| 2026-05-05 08:35 | 45.82272 | -2.77291 | 36942 ft | 462 kts | 30° |
| 2026-05-05 08:35 | 45.87820 | -2.72631 | 36937 ft | 462 kts | 30° |
| 2026-05-05 08:36 | 45.93367 | -2.67962 | 36944 ft | 463 kts | 30° |
| 2026-05-05 08:36 | 45.98928 | -2.63269 | 36942 ft | 463 kts | 31° |
| 2026-05-05 08:37 | 46.04492 | -2.58564 | 36937 ft | 464 kts | 31° |
| 2026-05-05 08:37 | 46.10022 | -2.53875 | 36935 ft | 464 kts | 31° |
| 2026-05-05 08:38 | 46.15637 | -2.49267 | 36925 ft | 465 kts | 24° |
| 2026-05-05 08:38 | 46.21827 | -2.46688 | 36923 ft | 465 kts | 7° |
| 2026-05-05 08:39 | 46.28253 | -2.45746 | 36925 ft | 464 kts | 5° |
| 2026-05-05 08:39 | 46.34681 | -2.44813 | 36931 ft | 464 kts | 6° |
| 2026-05-05 08:40 | 46.41096 | -2.43785 | 36932 ft | 463 kts | 6° |
| 2026-05-05 08:40 | 46.47489 | -2.42632 | 36917 ft | 463 kts | 12° |
| 2026-05-05 08:41 | 46.53492 | -2.39422 | 36917 ft | 460 kts | 30° |
| 2026-05-05 08:41 | 46.59034 | -2.34770 | 36917 ft | 460 kts | 31° |
| 2026-05-05 08:42 | 46.64555 | -2.30083 | 36920 ft | 459 kts | 31° |
| 2026-05-05 08:42 | 46.70096 | -2.25456 | 36919 ft | 459 kts | 30° |
| 2026-05-05 08:43 | 46.75642 | -2.20850 | 36917 ft | 458 kts | 30° |
| 2026-05-05 08:43 | 46.81180 | -2.16240 | 36931 ft | 458 kts | 30° |
| 2026-05-05 08:44 | 46.86718 | -2.11615 | 36907 ft | 459 kts | 30° |
| 2026-05-05 08:44 | 46.92326 | -2.07170 | 36910 ft | 459 kts | 26° |
| 2026-05-05 08:45 | 46.98050 | -2.03065 | 36887 ft | 458 kts | 34° |
| 2026-05-05 08:45 | 47.00538 | -2.00202 | 36921 ft | 455 kts | 46° |
| 2026-05-05 08:45 | 47.02592 | -1.96689 | 36912 ft | 453 kts | 57° |
| 2026-05-05 08:46 | 47.05710 | -1.88693 | 36915 ft | 452 kts | 63° |
| 2026-05-05 08:46 | 47.08733 | -1.80593 | 36905 ft | 454 kts | 62° |
| 2026-05-05 08:47 | 47.11818 | -1.72497 | 36914 ft | 455 kts | 62° |
| 2026-05-05 08:47 | 47.14922 | -1.64394 | 36905 ft | 456 kts | 62° |
| 2026-05-05 08:48 | 47.17525 | -1.57659 | 36910 ft | 457 kts | 61° |
| 2026-05-05 08:48 | 47.20793 | -1.49642 | 36914 ft | 457 kts | 60° |
| 2026-05-05 08:49 | 47.24084 | -1.41642 | 36907 ft | 457 kts | 60° |
| 2026-05-05 08:49 | 47.27352 | -1.33621 | 36899 ft | 457 kts | 61° |
| 2026-05-05 08:50 | 47.30603 | -1.25581 | 36895 ft | 456 kts | 61° |
| 2026-05-05 08:50 | 47.33839 | -1.17541 | 36883 ft | 456 kts | 61° |
| 2026-05-05 08:51 | 47.37062 | -1.09508 | 36877 ft | 455 kts | 61° |
| 2026-05-05 08:51 | 47.40278 | -1.01473 | 36876 ft | 454 kts | 62° |
| 2026-05-05 08:52 | 47.43481 | -0.93444 | 36876 ft | 453 kts | 62° |
| 2026-05-05 08:52 | 47.46675 | -0.85415 | 36876 ft | 453 kts | 62° |
| 2026-05-05 08:53 | 47.49860 | -0.77386 | 36863 ft | 453 kts | 62° |
| 2026-05-05 08:53 | 47.53044 | -0.69336 | 36872 ft | 453 kts | 62° |
| 2026-05-05 08:54 | 47.56221 | -0.61277 | 36871 ft | 453 kts | 62° |
| 2026-05-05 08:54 | 47.59387 | -0.53224 | 36880 ft | 452 kts | 62° |
| 2026-05-05 08:55 | 47.62546 | -0.45166 | 36881 ft | 452 kts | 62° |
| 2026-05-05 08:55 | 47.65695 | -0.37105 | 36882 ft | 451 kts | 62° |
| 2026-05-05 08:56 | 47.68836 | -0.29043 | 36880 ft | 451 kts | 62° |
| 2026-05-05 08:56 | 47.71967 | -0.20983 | 36877 ft | 451 kts | 62° |
| 2026-05-05 08:57 | 47.75094 | -0.12908 | 36891 ft | 452 kts | 62° |
| 2026-05-05 08:57 | 47.78231 | -0.04782 | 36876 ft | 454 kts | 62° |
| 2026-05-05 08:58 | 47.81383 | 0.03408 | 36854 ft | 458 kts | 63° |
| 2026-05-05 08:58 | 47.84545 | 0.11649 | 36837 ft | 458 kts | 63° |
| 2026-05-05 08:59 | 47.87689 | 0.19864 | 36860 ft | 455 kts | 63° |
| 2026-05-05 08:59 | 47.90807 | 0.28037 | 36849 ft | 453 kts | 63° |
| 2026-05-05 09:00 | 47.93904 | 0.36184 | 36846 ft | 450 kts | 63° |
| 2026-05-05 09:00 | 47.96955 | 0.44233 | 36838 ft | 448 kts | 63° |
| 2026-05-05 09:01 | 48.00011 | 0.52321 | 36847 ft | 447 kts | 63° |
| 2026-05-05 09:01 | 48.03058 | 0.60410 | 36847 ft | 447 kts | 63° |
| 2026-05-05 09:02 | 48.06127 | 0.68580 | 36843 ft | 448 kts | 63° |
| 2026-05-05 09:02 | 48.09178 | 0.76728 | 36844 ft | 450 kts | 63° |
| 2026-05-05 09:03 | 48.12237 | 0.84925 | 36848 ft | 452 kts | 63° |
| 2026-05-05 09:03 | 48.15284 | 0.93113 | 36846 ft | 454 kts | 63° |
| 2026-05-05 09:04 | 48.18380 | 1.01458 | 36836 ft | 457 kts | 63° |
| 2026-05-05 09:04 | 48.21463 | 1.09791 | 36836 ft | 457 kts | 63° |
| 2026-05-05 09:05 | 48.24364 | 1.18244 | 36839 ft | 455 kts | 66° |
| 2026-05-05 09:05 | 48.27117 | 1.26780 | 36852 ft | 455 kts | 66° |
| 2026-05-05 09:06 | 48.29861 | 1.35263 | 36830 ft | 454 kts | 66° |
| 2026-05-05 09:06 | 48.32638 | 1.43783 | 36831 ft | 453 kts | 66° |
| 2026-05-05 09:07 | 48.35411 | 1.52288 | 36831 ft | 453 kts | 66° |
| 2026-05-05 09:07 | 48.38174 | 1.60788 | 36843 ft | 452 kts | 66° |
| 2026-05-05 09:08 | 48.40928 | 1.69292 | 36844 ft | 452 kts | 66° |
| 2026-05-05 09:08 | 48.43670 | 1.77789 | 36835 ft | 451 kts | 67° |
| 2026-05-05 09:09 | 48.46403 | 1.86286 | 36838 ft | 451 kts | 67° |
| 2026-05-05 09:09 | 48.49128 | 1.94789 | 36838 ft | 451 kts | 67° |
| 2026-05-05 09:10 | 48.51849 | 2.03309 | 36848 ft | 451 kts | 67° |
| 2026-05-05 09:10 | 48.54566 | 2.11838 | 36849 ft | 451 kts | 67° |
| 2026-05-05 09:11 | 48.56535 | 2.20733 | 36855 ft | 445 kts | 84° |
| 2026-05-05 09:11 | 48.56700 | 2.29977 | 36867 ft | 441 kts | 96° |
| 2026-05-05 09:12 | 48.56353 | 2.39251 | 36855 ft | 443 kts | 96° |
| 2026-05-05 09:12 | 48.56034 | 2.48552 | 36853 ft | 445 kts | 96° |
| 2026-05-05 09:13 | 48.55743 | 2.57882 | 36859 ft | 445 kts | 96° |
| 2026-05-05 09:13 | 48.55452 | 2.67213 | 36850 ft | 445 kts | 96° |
| 2026-05-05 09:14 | 48.55151 | 2.76542 | 36851 ft | 445 kts | 96° |
| 2026-05-05 09:14 | 48.54859 | 2.85860 | 36839 ft | 444 kts | 96° |
| 2026-05-05 09:15 | 48.54564 | 2.95163 | 36842 ft | 443 kts | 96° |
| 2026-05-05 09:15 | 48.54254 | 3.04453 | 36819 ft | 443 kts | 96° |
| 2026-05-05 09:16 | 48.53933 | 3.13671 | 36839 ft | 443 kts | 96° |
| 2026-05-05 09:16 | 48.53604 | 3.22943 | 36846 ft | 443 kts | 96° |
| 2026-05-05 09:17 | 48.53268 | 3.32233 | 36860 ft | 445 kts | 96° |
| 2026-05-05 09:17 | 48.52920 | 3.41598 | 36860 ft | 449 kts | 96° |
| 2026-05-05 09:18 | 48.52564 | 3.51046 | 36831 ft | 451 kts | 96° |
| 2026-05-05 09:18 | 48.52202 | 3.60467 | 36840 ft | 448 kts | 96° |
| 2026-05-05 09:19 | 48.51835 | 3.69811 | 36841 ft | 444 kts | 96° |
| 2026-05-05 09:19 | 48.51463 | 3.79068 | 36859 ft | 441 kts | 96° |
| 2026-05-05 09:20 | 48.51083 | 3.88300 | 36854 ft | 442 kts | 97° |
| 2026-05-05 09:20 | 48.50699 | 3.97539 | 36845 ft | 440 kts | 97° |
| 2026-05-05 09:21 | 48.49822 | 4.06595 | 36866 ft | 433 kts | 108° |
| 2026-05-05 09:21 | 48.48191 | 4.15323 | 36861 ft | 433 kts | 109° |
| 2026-05-05 09:22 | 48.46540 | 4.24056 | 36861 ft | 434 kts | 109° |
| 2026-05-05 09:22 | 48.44913 | 4.32822 | 36846 ft | 436 kts | 109° |
| 2026-05-05 09:23 | 48.43284 | 4.41649 | 36859 ft | 438 kts | 109° |
| 2026-05-05 09:23 | 48.41647 | 4.50505 | 36864 ft | 440 kts | 109° |
| 2026-05-05 09:24 | 48.39993 | 4.59403 | 36854 ft | 442 kts | 109° |
| 2026-05-05 09:24 | 48.38327 | 4.68319 | 36859 ft | 443 kts | 109° |
| 2026-05-05 09:25 | 48.36651 | 4.77251 | 36847 ft | 444 kts | 109° |
| 2026-05-05 09:25 | 48.34966 | 4.86179 | 36855 ft | 444 kts | 109° |
| 2026-05-05 09:26 | 48.33274 | 4.95108 | 36858 ft | 444 kts | 109° |
| 2026-05-05 09:26 | 48.31582 | 5.04004 | 36813 ft | 441 kts | 109° |
| 2026-05-05 09:26 | 48.30741 | 5.08411 | 36483 ft | 436 kts | 110° |
| 2026-05-05 09:27 | 48.29930 | 5.12762 | 36128 ft | 431 kts | 107° |
| 2026-05-05 09:27 | 48.29465 | 5.17195 | 35792 ft | 430 kts | 98° |
| 2026-05-05 09:27 | 48.29466 | 5.21692 | 35438 ft | 429 kts | 92° |
| 2026-05-05 09:27 | 48.29614 | 5.26150 | 35071 ft | 427 kts | 91° |
| 2026-05-05 09:28 | 48.29781 | 5.30583 | 34698 ft | 424 kts | 92° |
| 2026-05-05 09:28 | 48.29941 | 5.34983 | 34326 ft | 421 kts | 92° |
| 2026-05-05 09:28 | 48.30088 | 5.39356 | 33966 ft | 418 kts | 93° |
| 2026-05-05 09:28 | 48.30223 | 5.43712 | 33549 ft | 416 kts | 93° |
| 2026-05-05 09:29 | 48.30348 | 5.48032 | 33137 ft | 413 kts | 93° |
| 2026-05-05 09:29 | 48.30467 | 5.52333 | 32766 ft | 410 kts | 94° |
| 2026-05-05 09:29 | 48.30583 | 5.56584 | 32380 ft | 407 kts | 94° |
| 2026-05-05 09:29 | 48.30696 | 5.60802 | 32033 ft | 402 kts | 94° |
| 2026-05-05 09:30 | 48.30806 | 5.64983 | 31675 ft | 398 kts | 94° |
| 2026-05-05 09:30 | 48.30913 | 5.69115 | 31324 ft | 395 kts | 94° |
| 2026-05-05 09:30 | 48.30982 | 5.71837 | 31096 ft | 392 kts | 94° |
| 2026-05-05 09:30 | 48.31085 | 5.75915 | 30757 ft | 389 kts | 94° |
| 2026-05-05 09:31 | 48.31186 | 5.79960 | 30425 ft | 386 kts | 94° |
| 2026-05-05 09:31 | 48.31317 | 5.85288 | 29994 ft | 384 kts | 94° |
| 2026-05-05 09:31 | 48.31413 | 5.89299 | 29597 ft | 384 kts | 94° |
| 2026-05-05 09:31 | 48.31477 | 5.91996 | 29335 ft | 383 kts | 94° |
| 2026-05-05 09:32 | 48.31573 | 5.95978 | 28981 ft | 380 kts | 94° |
| 2026-05-05 09:32 | 48.31665 | 5.99916 | 28615 ft | 376 kts | 94° |
| 2026-05-05 09:32 | 48.31772 | 6.03818 | 28233 ft | 373 kts | 90° |
| 2026-05-05 09:32 | 48.32212 | 6.07668 | 27963 ft | 373 kts | 78° |
| 2026-05-05 09:33 | 48.33053 | 6.11325 | 27721 ft | 369 kts | 74° |
| 2026-05-05 09:33 | 48.33948 | 6.14920 | 27389 ft | 366 kts | 73° |
| 2026-05-05 09:33 | 48.34846 | 6.18492 | 27059 ft | 364 kts | 73° |
| 2026-05-05 09:33 | 48.35734 | 6.22041 | 26720 ft | 362 kts | 73° |
| 2026-05-05 09:34 | 48.36614 | 6.25585 | 26374 ft | 361 kts | 73° |
| 2026-05-05 09:34 | 48.37488 | 6.29127 | 26026 ft | 360 kts | 73° |
| 2026-05-05 09:34 | 48.38351 | 6.32647 | 25684 ft | 358 kts | 73° |
| 2026-05-05 09:34 | 48.39209 | 6.36158 | 25350 ft | 356 kts | 73° |
| 2026-05-05 09:35 | 48.40058 | 6.39643 | 25028 ft | 354 kts | 73° |
| 2026-05-05 09:35 | 48.41742 | 6.46583 | 24360 ft | 351 kts | 73° |
| 2026-05-05 09:35 | 48.42574 | 6.50025 | 24024 ft | 349 kts | 73° |
| 2026-05-05 09:36 | 48.43402 | 6.53454 | 23702 ft | 347 kts | 72° |
| 2026-05-05 09:36 | 48.44225 | 6.56864 | 23372 ft | 346 kts | 72° |
| 2026-05-05 09:36 | 48.45042 | 6.60260 | 23003 ft | 344 kts | 72° |
| 2026-05-05 09:36 | 48.45856 | 6.63645 | 22647 ft | 343 kts | 72° |
| 2026-05-05 09:37 | 48.46667 | 6.67023 | 22300 ft | 342 kts | 72° |
| 2026-05-05 09:37 | 48.47473 | 6.70387 | 21961 ft | 340 kts | 72° |
| 2026-05-05 09:37 | 48.48271 | 6.73720 | 21642 ft | 337 kts | 72° |
| 2026-05-05 09:37 | 48.49063 | 6.77035 | 21325 ft | 335 kts | 72° |
| 2026-05-05 09:38 | 48.49848 | 6.80326 | 21015 ft | 333 kts | 72° |
| 2026-05-05 09:38 | 48.50631 | 6.83611 | 20699 ft | 332 kts | 72° |
| 2026-05-05 09:38 | 48.51411 | 6.86892 | 20378 ft | 331 kts | 72° |
| 2026-05-05 09:38 | 48.52187 | 6.90159 | 20063 ft | 330 kts | 72° |
| 2026-05-05 09:39 | 48.52958 | 6.93412 | 19745 ft | 329 kts | 72° |
| 2026-05-05 09:39 | 48.53727 | 6.96659 | 19437 ft | 328 kts | 72° |
| 2026-05-05 09:39 | 48.54494 | 6.99902 | 19132 ft | 328 kts | 72° |
| 2026-05-05 09:39 | 48.55259 | 7.03145 | 18820 ft | 328 kts | 72° |
| 2026-05-05 09:40 | 48.56024 | 7.06388 | 18511 ft | 328 kts | 73° |
| 2026-05-05 09:40 | 48.56787 | 7.09630 | 18188 ft | 328 kts | 73° |
| 2026-05-05 09:40 | 48.57553 | 7.12889 | 17833 ft | 329 kts | 73° |
| 2026-05-05 09:40 | 48.58308 | 7.16106 | 17495 ft | 329 kts | 73° |
| 2026-05-05 09:41 | 48.59080 | 7.19403 | 17146 ft | 329 kts | 73° |
| 2026-05-05 09:41 | 48.59830 | 7.22608 | 16835 ft | 327 kts | 73° |
| 2026-05-05 09:41 | 48.60585 | 7.25837 | 16518 ft | 325 kts | 73° |
| 2026-05-05 09:41 | 48.61335 | 7.29052 | 16191 ft | 324 kts | 73° |
| 2026-05-05 09:42 | 48.62080 | 7.32251 | 15881 ft | 321 kts | 73° |
| 2026-05-05 09:42 | 48.62819 | 7.35424 | 15575 ft | 319 kts | 73° |
| 2026-05-05 09:42 | 48.63553 | 7.38583 | 15261 ft | 317 kts | 73° |
| 2026-05-05 09:42 | 48.64280 | 7.41718 | 14940 ft | 316 kts | 73° |
| 2026-05-05 09:43 | 48.65004 | 7.44843 | 14645 ft | 314 kts | 73° |
| 2026-05-05 09:43 | 48.65724 | 7.47959 | 14341 ft | 313 kts | 73° |
| 2026-05-05 09:43 | 48.66439 | 7.51057 | 14043 ft | 312 kts | 73° |
| 2026-05-05 09:43 | 48.67152 | 7.54147 | 13742 ft | 311 kts | 73° |
| 2026-05-05 09:44 | 48.67862 | 7.57232 | 13407 ft | 310 kts | 74° |
| 2026-05-05 09:44 | 48.68567 | 7.60300 | 13079 ft | 308 kts | 74° |
| 2026-05-05 09:44 | 48.69269 | 7.63357 | 12759 ft | 306 kts | 73° |
| 2026-05-05 09:44 | 48.69965 | 7.66394 | 12458 ft | 305 kts | 73° |
| 2026-05-05 09:45 | 48.70657 | 7.69413 | 12158 ft | 303 kts | 73° |
| 2026-05-05 09:45 | 48.71344 | 7.72418 | 11863 ft | 301 kts | 73° |
| 2026-05-05 09:45 | 48.72025 | 7.75403 | 11668 ft | 300 kts | 73° |
| 2026-05-05 09:45 | 48.72706 | 7.78393 | 11298 ft | 302 kts | 73° |
| 2026-05-05 09:46 | 48.73391 | 7.81402 | 10970 ft | 303 kts | 73° |
| 2026-05-05 09:46 | 48.74075 | 7.84415 | 10666 ft | 302 kts | 73° |
| 2026-05-05 09:46 | 48.74756 | 7.87412 | 10372 ft | 300 kts | 73° |
| 2026-05-05 09:46 | 48.75425 | 7.90365 | 10099 ft | 300 kts | 73° |
| 2026-05-05 09:47 | 48.76098 | 7.93334 | 9935 ft | 295 kts | 73° |
| 2026-05-05 09:47 | 48.76755 | 7.96240 | 9834 ft | 286 kts | 73° |
| 2026-05-05 09:47 | 48.77388 | 7.99041 | 9537 ft | 283 kts | 73° |
| 2026-05-05 09:47 | 48.78028 | 8.01883 | 9194 ft | 283 kts | 73° |
| 2026-05-05 09:48 | 48.78664 | 8.04709 | 8862 ft | 283 kts | 73° |
| 2026-05-05 09:48 | 48.79296 | 8.07520 | 8578 ft | 281 kts | 73° |
| 2026-05-05 09:48 | 48.80030 | 8.10264 | 8254 ft | 283 kts | 59° |
| 2026-05-05 09:48 | 48.81261 | 8.12604 | 7968 ft | 283 kts | 50° |
| 2026-05-05 09:49 | 48.82562 | 8.14835 | 7670 ft | 282 kts | 50° |
| 2026-05-05 09:49 | 48.83853 | 8.17062 | 7386 ft | 281 kts | 50° |
| 2026-05-05 09:49 | 48.85132 | 8.19296 | 7101 ft | 279 kts | 50° |
| 2026-05-05 09:49 | 48.86397 | 8.21525 | 6828 ft | 278 kts | 50° |
| 2026-05-05 09:50 | 48.87651 | 8.23750 | 6563 ft | 276 kts | 51° |
| 2026-05-05 09:50 | 48.88895 | 8.25966 | 6312 ft | 275 kts | 51° |
| 2026-05-05 09:50 | 48.90130 | 8.28175 | 6062 ft | 273 kts | 51° |
| 2026-05-05 09:50 | 48.91344 | 8.30346 | 5937 ft | 266 kts | 51° |
| 2026-05-05 09:51 | 48.92520 | 8.32456 | 5822 ft | 258 kts | 51° |
| 2026-05-05 09:51 | 48.93680 | 8.34455 | 5773 ft | 248 kts | 40° |
| 2026-05-05 09:51 | 48.95216 | 8.35435 | 5697 ft | 237 kts | 4° |
| 2026-05-05 09:51 | 48.96809 | 8.35072 | 5446 ft | 230 kts | 335° |
| 2026-05-05 09:52 | 48.98058 | 8.33678 | 5228 ft | 219 kts | 307° |
| 2026-05-05 09:52 | 48.98709 | 8.31667 | 4990 ft | 209 kts | 280° |
| 2026-05-05 09:52 | 48.98701 | 8.29546 | 4833 ft | 195 kts | 254° |
| 2026-05-05 09:52 | 48.98172 | 8.27685 | 4635 ft | 190 kts | 233° |
| 2026-05-05 09:53 | 48.97228 | 8.26347 | 4590 ft | 183 kts | 218° |
| 2026-05-05 09:53 | 48.96190 | 8.25131 | 4350 ft | 192 kts | 213° |
| 2026-05-05 09:53 | 48.95057 | 8.24025 | 4104 ft | 194 kts | 211° |
| 2026-05-05 09:53 | 48.93918 | 8.22968 | 3845 ft | 187 kts | 211° |
| 2026-05-05 09:54 | 48.92840 | 8.21966 | 3598 ft | 177 kts | 211° |
| 2026-05-05 09:54 | 48.91820 | 8.21013 | 3398 ft | 170 kts | 211° |
| 2026-05-05 09:54 | 48.90832 | 8.20091 | 3165 ft | 168 kts | 211° |
| 2026-05-05 09:54 | 48.89831 | 8.19157 | 2945 ft | 169 kts | 212° |
| 2026-05-05 09:55 | 48.88825 | 8.18218 | 2724 ft | 169 kts | 212° |
| 2026-05-05 09:55 | 48.87858 | 8.17315 | 2529 ft | 157 kts | 212° |
| 2026-05-05 09:55 | 48.86948 | 8.16465 | 2289 ft | 151 kts | 212° |
| 2026-05-05 09:55 | 48.86054 | 8.15630 | 2107 ft | 152 kts | 212° |
| 2026-05-05 09:56 | 48.85141 | 8.14777 | 1905 ft | 155 kts | 213° |
| 2026-05-05 09:56 | 48.84224 | 8.13920 | 1687 ft | 154 kts | 213° |
| 2026-05-05 09:56 | 48.83325 | 8.13080 | 1473 ft | 149 kts | 213° |
| 2026-05-05 09:56 | 48.82452 | 8.12264 | 1289 ft | 146 kts | 212° |
| 2026-05-05 09:57 | 48.81591 | 8.11461 | 1087 ft | 145 kts | 212° |
| 2026-05-05 09:57 | 48.80737 | 8.10665 | 927 ft | 144 kts | 211° |
| 2026-05-05 09:57 | 48.79874 | 8.09861 | 720 ft | 145 kts | 211° |
| 2026-05-05 09:57 | 48.79023 | 8.09067 | 486 ft | 142 kts | 211° |
| 2026-05-05 09:58 | 48.78222 | 8.08322 | 410 ft | 117 kts | 211° |
| 2026-05-05 09:58 | 48.77718 | 8.07846 | 410 ft | 54 kts | 212° |
| 2026-05-05 09:58 | 48.77498 | 8.07639 | 409 ft | 23 kts | 211° |
| 2026-05-05 09:58 | 48.77405 | 8.07555 | 412 ft | 11 kts | 202° |
| 2026-05-05 09:59 | 48.77345 | 8.07600 | 412 ft | 11 kts | 121° |
| 2026-05-05 09:59 | 48.77307 | 8.07697 | 411 ft | 10 kts | 116° |
| 2026-05-05 09:59 | 48.77329 | 8.07775 | 411 ft | 9 kts | 35° |
| 2026-05-05 09:59 | 48.77380 | 8.07823 | 411 ft | 9 kts | 32° |
| 2026-05-05 10:00 | 48.77430 | 8.07871 | 409 ft | 8 kts | 32° |
| 2026-05-05 10:00 | 48.77479 | 8.07917 | 409 ft | 9 kts | 32° |
| 2026-05-05 10:00 | 48.77539 | 8.07973 | 410 ft | 12 kts | 32° |
| 2026-05-05 10:00 | 48.77618 | 8.08046 | 408 ft | 13 kts | 32° |
| 2026-05-05 10:01 | 48.77695 | 8.08118 | 411 ft | 13 kts | 32° |
| 2026-05-05 10:01 | 48.77770 | 8.08188 | 410 ft | 13 kts | 31° |
| 2026-05-05 10:01 | 48.77843 | 8.08257 | 411 ft | 12 kts | 31° |
| 2026-05-05 10:01 | 48.77915 | 8.08324 | 410 ft | 12 kts | 32° |
| 2026-05-05 10:02 | 48.77983 | 8.08389 | 411 ft | 12 kts | 32° |
| 2026-05-05 10:02 | 48.78051 | 8.08452 | 412 ft | 11 kts | 32° |
| 2026-05-05 10:02 | 48.78116 | 8.08513 | 411 ft | 10 kts | 31° |
| 2026-05-05 10:02 | 48.78147 | 8.08578 | 411 ft | 8 kts | 100° |
| 2026-05-05 10:03 | 48.78122 | 8.08647 | 411 ft | 7 kts | 121° |
| 2026-05-05 10:03 | 48.78100 | 8.08711 | 408 ft | 6 kts | 104° |
| 2026-05-05 10:03 | 48.78120 | 8.08765 | 411 ft | 6 kts | 33° |
| 2026-05-05 10:03 | 48.78145 | 8.08812 | 411 ft | 6 kts | 91° |
| 2026-05-05 10:04 | 48.78130 | 8.08851 | 408 ft | 3 kts | 139° |
| 2026-05-05 10:04 | 48.78123 | 8.08856 | 410 ft | 0 kts | 153° |